首页
METAR-TAF:

METAR-TAF

机场 :

汶萊國際機場

文莱, 文莱

纬度: 04-56N, 经度: 114-56E, 海拔: 22米

当前天气观测

该预报发布于26分钟前的20:30 UTC
风速6节,风向
温度 26°C
湿度 94%
气压 1010 hPa
能见度10公里或以上
少量云层高于1500英尺
多云层高于28000英尺

METAR: WBSB 222030Z 18006KT 9999 FEW015 BKN280 26/25 Q1010 NOSIG

时间: 04:56 (20:56 UTC)

预报

该预报发布于3小时和56分钟前的17:00 UTC
预报有效从22日的 18点(UTC)到 24日的 00点(UTC)
风速3节,风向西转西南
能见度10公里或以上
少量云层高于1400英尺
成为
从 23日的 02点(UTC)到 23日的 04点(UTC)
风速10节,风向西北
少量云层高于1600英尺
少量云层高于1700英尺, 积雨云.

TAF: WBSB 221700Z 2218/2400 24003KT 9999 FEW014 BECMG 2302/2304 32010KT FEW016 FEW017CB

超过4000个机场的气象观测和天气预报(METAR&TAF报告)。

可查询的气象台以黄色和红色小点在地图上表示。

将鼠标移到小点上方,可查看气象台名称。

然后点击查看天气观测和预报。

如需切换地图:点击带黑十字的绿色按钮放大地图;点击带横线的绿色按钮缩小地图;或者点击绿色箭头查看邻近地区的地图。


METAR-TAF: